Weather History for Crestview, FL

Change the Weather History Date:

Monday, December 9, 2013

  Actual Average Record
Temperature  
Mean Temperature 68 °F -  
Max Temperature 73 °F - - ()
Min Temperature 64 °F - - ()
Cooling Degree Days 4    
Growing Degree Days 18 (Base 50)    
Moisture  
Dew Point 70 °F    
Average Humidity 99    
Maximum Humidity 100    
Minimum Humidity 86    
Precipitation  
Precipitation 0.63 in - - ()
Sea Level Pressure  
Sea Level Pressure 30.08 in    
Wind  
Wind Speed 7 mph (South)    
Max Wind Speed 15 mph    
Max Gust Speed -    
Visibility 5 miles    
Events Fog , Rain , Thunderstorm    
T = Trace of Precipitation, MM = Missing Value Source: NWS Daily Summary

Daily Weather History Graph

Daily Weather History Graph

Search for Another Location

Airport:

Trip Planner

Search our weather history database for the weather conditions in past years. The results will help you decide how hot, cold, wet, or windy it might be!

Date:

Astronomy

Dec. 09, 2013 Rise Set
Actual Time 6:32 AM CST 4:45 PM CST
Civil Twilight 6:05 AM CST 5:11 PM CST
Nautical Twilight 5:35 AM CST 5:41 PM CST
Astronomical Twilight 5:06 AM CST 6:10 PM CST
Moon 11:48 AM CST (12/9) No Moon Set
Length of Visible Light 11h 05m
Length of Day
10h 13m
Waxing Crescent, 51% of the Moon is Illuminated
Dec 9
Waxing Crescent
Dec 17
Full
Dec 25
Last Quarter
Jan 1
New
Jan 7
First Quarter

Hourly Weather History & Observations

Time (CST) Temp. Dew Point Humidity Pressure Visibility Wind Dir Wind Speed Gust Speed Precip Events Conditions
12:18 AM 69.8 °F 69.8 °F 100% 30.09 in 10.0 mi SSE 11.5 mph - N/A   Overcast
12:58 AM 69.3 °F 69.3 °F 100% 30.10 in 10.0 mi SSE 6.9 mph - N/A   Overcast
1:13 AM 69.8 °F 69.8 °F 100% 30.08 in 7.0 mi SSE 10.4 mph - N/A   Overcast
1:38 AM 69.8 °F 69.8 °F 100% 30.08 in 10.0 mi South 8.1 mph - N/A   Overcast
1:43 AM 69.8 °F 69.8 °F 100% 30.08 in 8.0 mi South 10.4 mph - N/A   Overcast
1:58 AM 69.6 °F 69.6 °F 100% 30.08 in 10.0 mi South 8.1 mph - N/A   Overcast
2:58 AM 69.1 °F 69.1 °F 100% 30.09 in 4.0 mi South 6.9 mph - N/A   Overcast
3:08 AM 69.8 °F 69.8 °F 100% 30.08 in 2.0 mi South 6.9 mph - N/A   Overcast
3:13 AM 69.8 °F 69.8 °F 100% 30.08 in 2.5 mi South 5.8 mph - N/A   Overcast
3:18 AM 69.8 °F 69.8 °F 100% 30.08 in 5.0 mi SSW 5.8 mph - N/A   Overcast
3:33 AM 69.8 °F 69.8 °F 100% 30.08 in 10.0 mi South 6.9 mph - N/A   Overcast
3:48 AM 69.8 °F 69.8 °F 100% 30.08 in 10.0 mi South 5.8 mph - N/A   Mostly Cloudy
3:58 AM 69.8 °F 69.8 °F 100% 30.09 in 2.0 mi South 6.9 mph - N/A   Mostly Cloudy
4:03 AM 69.8 °F 69.8 °F 100% 30.08 in 2.0 mi South 6.9 mph - N/A   Mostly Cloudy
4:08 AM 69.8 °F 69.8 °F 100% 30.08 in 4.0 mi South 9.2 mph - N/A   Mostly Cloudy
4:18 AM 69.8 °F 69.8 °F 100% 30.07 in 7.0 mi South 8.1 mph - N/A   Scattered Clouds
4:33 AM 69.8 °F 69.8 °F 100% 30.07 in 6.0 mi South 9.2 mph - N/A   Mostly Cloudy
4:38 AM 69.8 °F 69.8 °F 100% 30.07 in 9.0 mi South 8.1 mph - N/A   Mostly Cloudy
4:58 AM 69.6 °F 69.6 °F 100% 30.08 in 8.0 mi South 5.8 mph - N/A   Overcast
5:03 AM 69.8 °F 69.8 °F 100% 30.07 in 6.0 mi South 5.8 mph - N/A   Overcast
5:23 AM 69.8 °F 69.8 °F 100% 30.08 in 3.0 mi South 5.8 mph - N/A   Overcast
5:28 AM 69.8 °F 69.8 °F 100% 30.08 in 1.5 mi South 6.9 mph - N/A   Overcast
5:38 AM 69.8 °F 69.8 °F 100% 30.08 in 2.0 mi South 5.8 mph - N/A   Overcast
5:43 AM 69.8 °F 69.8 °F 100% 30.09 in 2.5 mi South 5.8 mph - N/A   Overcast
5:58 AM 69.8 °F 69.8 °F 100% 30.10 in 4.0 mi South 5.8 mph - N/A   Overcast
6:03 AM 69.8 °F 69.8 °F 100% 30.08 in 4.0 mi South 4.6 mph - N/A   Overcast
6:08 AM 69.8 °F 69.8 °F 100% 30.08 in 2.5 mi SSE 4.6 mph - N/A   Overcast
6:18 AM 69.8 °F 69.8 °F 100% 30.08 in 1.8 mi SSE 4.6 mph - N/A   Overcast
6:23 AM 69.8 °F 69.8 °F 100% 30.08 in 1.0 mi South 4.6 mph - N/A   Mist
6:28 AM 69.8 °F 69.8 °F 100% 30.09 in 0.5 mi South 3.5 mph - N/A Fog Fog
6:33 AM 69.8 °F 69.8 °F 100% 30.09 in 0.2 mi South 3.5 mph - N/A Fog Fog
6:48 AM 69.8 °F 69.8 °F 100% 30.09 in 0.2 mi South 3.5 mph - N/A Fog Fog
6:58 AM 69.8 °F 69.8 °F 100% 30.10 in 0.2 mi South 3.5 mph - N/A Fog Fog
7:08 AM 69.8 °F 69.8 °F 100% 30.09 in 0.5 mi South 3.5 mph - N/A Fog Fog
7:13 AM 69.8 °F 69.8 °F 100% 30.09 in 0.8 mi South 3.5 mph - N/A   Mist
7:18 AM 69.8 °F 69.8 °F 100% 30.10 in 1.8 mi South 3.5 mph - N/A   Mostly Cloudy
7:23 AM 69.8 °F 69.8 °F 100% 30.09 in 4.0 mi South 2.3 mph - N/A   Overcast
7:28 AM 69.8 °F 69.8 °F 100% 30.10 in 6.0 mi SSE 3.5 mph - N/A   Overcast
7:50 AM 69.8 °F 69.8 °F 100% 30.10 in 4.0 mi South 5.8 mph - N/A Rain Light Rain
7:58 AM 70.5 °F 70.5 °F 100% 30.10 in 4.0 mi South 8.1 mph - 0.01 in Rain Rain
8:04 AM 69.8 °F 69.8 °F 100% 30.09 in 10.0 mi South 6.9 mph - N/A   Mostly Cloudy
8:09 AM 69.8 °F 69.8 °F 100% 30.10 in 10.0 mi South 4.6 mph - N/A   Mostly Cloudy
8:55 AM 71.4 °F 71.4 °F 100% 30.12 in 5.0 mi South 4.6 mph - 0.00 in   Overcast
9:04 AM 71.6 °F 71.6 °F 100% 30.11 in 3.0 mi South 6.9 mph - N/A Rain Light Rain
9:51 AM 71.6 °F 71.6 °F 100% 30.11 in 2.0 mi South 6.9 mph - 0.06 in Rain Light Rain
10:03 AM 71.6 °F 71.6 °F 100% 30.11 in 2.0 mi South 4.6 mph - N/A Rain , Thunderstorm Light Thunderstorms and Rain
10:16 AM 71.6 °F 71.6 °F 100% 30.10 in 1.0 mi South 5.8 mph - N/A Rain , Thunderstorm Heavy Thunderstorms and Rain
10:29 AM 71.6 °F 71.6 °F 100% 30.10 in 4.0 mi South 5.8 mph - N/A Rain , Thunderstorm Light Thunderstorms and Rain
10:47 AM 71.6 °F 71.6 °F 100% 30.10 in 1.2 mi SW 15.0 mph - N/A Rain , Thunderstorm Heavy Thunderstorms and Rain
10:55 AM 70.7 °F 70.5 °F 99% 30.11 in 0.8 mi SW 15.0 mph - 0.45 in Rain Heavy Rain
11:03 AM 69.8 °F 69.8 °F 100% 30.09 in 3.0 mi WSW 9.2 mph - N/A Rain Light Rain
11:28 AM 69.8 °F 69.8 °F 100% 30.08 in 7.0 mi WSW 5.8 mph - N/A   Overcast
11:55 AM 70.0 °F 70.0 °F 100% 30.10 in 4.0 mi WSW 4.6 mph - 0.09 in Rain Light Rain
12:01 PM 69.8 °F 69.8 °F 100% 30.09 in 3.0 mi WSW 5.8 mph - N/A Rain Rain
12:28 PM 71.6 °F 71.6 °F 100% 30.07 in 7.0 mi Calm Calm - N/A   Overcast
12:47 PM 71.6 °F 71.6 °F 100% 30.06 in 10.0 mi SW 2.3 mph - N/A   Overcast
12:55 PM 71.8 °F 71.4 °F 99% 30.06 in 10.0 mi SW 2.3 mph - 0.02 in   Mostly Cloudy
1:11 PM 73.4 °F 71.6 °F 94% 30.06 in 10.0 mi SW 3.5 mph - N/A   Mostly Cloudy
1:55 PM 72.7 °F 69.6 °F 90% 30.06 in 10.0 mi SSW 4.6 mph - N/A   Mostly Cloudy
2:55 PM 72.9 °F 68.5 °F 86% 30.06 in 10.0 mi West 4.6 mph - N/A   Mostly Cloudy
3:55 PM 70.2 °F 68.5 °F 95% 30.07 in 10.0 mi NNW 5.8 mph - N/A   Mostly Cloudy
4:58 PM 68.7 °F 68.4 °F 99% 30.08 in 10.0 mi Calm Calm - N/A   Overcast
5:55 PM 67.8 °F 67.8 °F 100% 30.07 in 10.0 mi ENE 1.2 mph - N/A   Mostly Cloudy
6:58 PM 67.5 °F 67.5 °F 100% 30.07 in 10.0 mi Calm Calm - N/A   Mostly Cloudy
7:26 PM 66.2 °F 66.2 °F 100% 30.06 in 4.0 mi Calm Calm - N/A   Mostly Cloudy
7:41 PM 66.2 °F 66.2 °F 100% 30.06 in 0.5 mi Calm Calm - N/A Fog Fog
7:55 PM 66.7 °F 66.7 °F 100% 30.07 in 0.1 mi Calm Calm - N/A Fog Fog
8:56 PM 66.6 °F 66.6 °F 100% 30.07 in 0.8 mi Calm Calm - N/A   Mist
9:55 PM 66.0 °F 66.0 °F 100% 30.06 in 0.8 mi NNW 2.3 mph - N/A   Mist
10:55 PM 65.8 °F 65.8 °F 100% 30.06 in 0.8 mi Calm Calm - N/A   Mist
11:55 PM 64.8 °F 64.8 °F 100% 30.05 in 0.2 mi Calm Calm - N/A Fog Fog
11:57 PM 64.4 °F 64.4 °F 100% 30.05 in 0.5 mi Calm Calm - N/A Fog Fog